createdAt,value
2019-01-21T20:34:07.689Z,17.42
2019-01-21T20:36:41.326Z,17.12
2019-01-21T20:39:12.489Z,16.32
2019-01-21T20:41:43.411Z,17.35
2019-01-21T20:44:13.839Z,14.87
2019-01-21T20:52:59.562Z,73.47
2019-01-21T20:55:30.244Z,89.37
2019-01-21T20:58:00.927Z,90.97
2019-01-21T21:00:32.988Z,93.55
2019-01-21T21:03:06.641Z,93.52
2019-01-21T21:05:38.882Z,90.62
2019-01-21T21:08:09.897Z,99.10
2019-01-21T21:10:42.797Z,107.12
2019-01-21T21:13:14.574Z,109.05
2019-01-21T21:15:45.277Z,108.67
2019-01-21T21:18:16.646Z,103.65
2019-01-21T21:20:47.863Z,99.95
2019-01-21T21:23:18.516Z,114.65
2019-01-21T21:25:49.122Z,103.50
2019-01-21T21:28:19.737Z,118.77
2019-01-21T21:30:50.849Z,107.58
2019-01-21T21:33:22.729Z,102.12
2019-01-21T21:35:53.489Z,114.70
2019-01-21T21:38:24.322Z,119.77
2019-01-21T21:40:55.031Z,105.30
2019-01-21T21:43:27.007Z,117.42
2019-01-21T21:45:57.545Z,110.75
2019-01-21T21:48:31.840Z,118.93
2019-01-21T21:50:59.988Z,119.93
2019-01-21T21:53:30.225Z,116.55
2019-01-21T21:56:00.824Z,119.67
2019-01-21T21:58:31.823Z,116.55
2019-01-21T22:01:01.989Z,118.40
2019-01-21T22:03:32.103Z,116.80
2019-01-21T22:06:02.524Z,105.17
2019-01-21T22:08:32.915Z,117.75
2019-01-21T22:11:03.256Z,114.08
2019-01-21T22:13:33.529Z,105.52
2019-01-21T22:16:03.984Z,112.75
2019-01-21T22:18:34.717Z,125.65
2019-01-21T22:21:05.245Z,123.80
2019-01-21T22:23:35.706Z,114.12
2019-01-21T22:26:06.181Z,122.10
2019-01-21T22:28:36.419Z,122.65
2019-01-21T22:31:06.509Z,121.30
2019-01-21T22:33:36.643Z,127.72
2019-01-21T22:36:06.714Z,126.40
2019-01-21T22:38:36.853Z,129.97
2019-01-21T22:41:07.310Z,131.03
2019-01-21T22:43:37.539Z,118.20
2019-01-21T22:46:07.939Z,124.12
2019-01-21T22:48:38.390Z,122.28
2019-01-21T22:51:08.560Z,134.78
2019-01-21T22:53:39.053Z,128.18
2019-01-21T22:56:09.159Z,119.60
2019-01-21T22:58:39.247Z,121.33
2019-01-21T23:01:12.469Z,135.50
2019-01-21T23:03:42.595Z,114.70
2019-01-21T23:06:12.675Z,127.22
2019-01-21T23:08:42.849Z,126.75
2019-01-21T23:11:13.344Z,127.70
2019-01-21T23:13:43.568Z,128.30
2019-01-21T23:16:13.666Z,117.97
